Fugaku Maru — JH3428 — position and weather

sailwx.info

Track history (hours):
 
Tides and Currents Weather Stations Pressure Air Temp Water Temp Dewpoint Dewpoint Depression Visibility Wind Speed Wind Dir Waves Ship Positions

Fugaku Maru

Last reported at 2014-Jul-21 23:09 UTC. Time now 2014-Jul-23 21:48 UTC.
Position N 35°43' E 141°03'.

Length 165 m; draft 7.2 m.

Type: Cargo ship. MMSI: 431200176.

Date/timePositionNaut miles runAvg speedWind from/ knotsBaromVisibWave heightAir tempDewpointWater temp
2014-Jul-21 23:09N 35°43' E 141°03'1419.5
2014-Jul-21 22:27N 35°32' E 140°53'1920.6
2014-Jul-21 21:32N 35°17' E 140°40'2120.6
2014-Jul-21 20:32N 35°01' E 140°23'521.9
2014-Jul-21 20:18N 34°58' E 140°18'1722.9
2014-Jul-21 19:33N 34°49' E 140°01'2322.5
2014-Jul-21 18:33N 34°40' E 139°35'62 3.4
2014-Jul-21 00:05N 34°29' E 138°21'1120.9
2014-Jul-20 23:33N 34°30' E 138°35'3718.2
2014-Jul-20 21:30N 34°35' E 139°20'1718.0
2014-Jul-20 20:33N 34°41' E 139°39'1818.5
2014-Jul-20 19:33N 34°49' E 139°60'2119.5
2014-Jul-20 18:29N 34°60' E 140°21'1920.0
2014-Jul-20 17:32N 35°14' E 140°37'2020.6
2014-Jul-20 16:33N 35°30' E 140°52'2219.7
2014-Jul-20 15:25N 35°50' E 141°03'2320.4
2014-Jul-20 14:17N 36°13' E 141°08'  
2014-Jul-18 03:23N 36°44' E 141°07'5719.6
2014-Jul-18 00:28N 35°47' E 141°01'1819.4
2014-Jul-17 23:33N 35°31' E 140°52'2220.3
2014-Jul-17 22:26N 35°12' E 140°36'1820.7
2014-Jul-17 21:33N 34°59' E 140°21'2020.1
2014-Jul-17 20:33N 34°49' E 139°60'2120.2
2014-Jul-17 19:31N 34°40' E 139°37'2422.9
2014-Jul-17 18:30N 34°31' E 139°10'40 2.2
2014-Jul-17 00:14N 34°28' E 138°22'5519.6
2014-Jul-16 21:28N 34°38' E 139°27'1820.1
2014-Jul-16 20:33N 34°45' E 139°48'1919.4
2014-Jul-16 19:33N 34°53' E 140°09'2118.5
2014-Jul-16 18:27N 35°04' E 140°30'1818.7
2014-Jul-16 17:29N 35°19' E 140°42'1920.7
2014-Jul-16 16:33N 35°35' E 140°56'2120.7
2014-Jul-16 15:33N 35°54' E 141°06'2121.2
2014-Jul-16 14:33N 36°15' E 141°10'  
2014-Jul-13 22:10N 35°36' E 140°57'1419.9
2014-Jul-13 21:29N 35°24' E 140°48'2321.2
2014-Jul-13 20:24N 35°06' E 140°30'1921.9
2014-Jul-13 19:33N 34°55' E 140°12'2222.1
2014-Jul-13 18:32N 34°44' E 139°48'76 3.3
2014-Jul-12 19:15N 34°28' E 138°18'1719.1
2014-Jul-12 18:22N 34°28' E 138°38'1718.4
2014-Jul-12 17:25N 34°27' E 138°59'1617.9
2014-Jul-12 16:30N 34°34' E 139°17'1819.2
2014-Jul-12 15:34N 34°41' E 139°38'2020.0
2014-Jul-12 14:33N 34°49' E 140°00'1919.4
2014-Jul-12 13:33N 34°59' E 140°20'1818.0
2014-Jul-12 12:33N 35°12' E 140°35'2020.0
2014-Jul-12 11:34N 35°29' E 140°49'2020.2
2014-Jul-12 10:33N 35°46' E 141°02'2020.3
2014-Jul-12 09:33N 36°07' E 141°03'  
Track history (hours):
 
Tides and Currents Weather Stations Pressure Air Temp Water Temp Dewpoint Dewpoint Depression Visibility Wind Speed Wind Dir Waves Ship Positions

Fugaku Maru

Last reported at 2014-Jul-21 23:09 UTC. Time now 2014-Jul-23 21:48 UTC.
Position N 35°43' E 141°03'.

Length 165 m; draft 7.2 m.

Type: Cargo ship. MMSI: 431200176.

Date/timePositionNaut miles runAvg speedWind from/ knotsBaromVisibWave heightAir tempDewpointWater temp
2014-Jul-21 23:09N 35°43' E 141°03'1419.5
2014-Jul-21 22:27N 35°32' E 140°53'1920.6
2014-Jul-21 21:32N 35°17' E 140°40'2120.6
2014-Jul-21 20:32N 35°01' E 140°23'521.9
2014-Jul-21 20:18N 34°58' E 140°18'1722.9
2014-Jul-21 19:33N 34°49' E 140°01'2322.5
2014-Jul-21 18:33N 34°40' E 139°35'62 3.4
2014-Jul-21 00:05N 34°29' E 138°21'1120.9
2014-Jul-20 23:33N 34°30' E 138°35'3718.2
2014-Jul-20 21:30N 34°35' E 139°20'1718.0
2014-Jul-20 20:33N 34°41' E 139°39'1818.5
2014-Jul-20 19:33N 34°49' E 139°60'2119.5
2014-Jul-20 18:29N 34°60' E 140°21'1920.0
2014-Jul-20 17:32N 35°14' E 140°37'2020.6
2014-Jul-20 16:33N 35°30' E 140°52'2219.7
2014-Jul-20 15:25N 35°50' E 141°03'2320.4
2014-Jul-20 14:17N 36°13' E 141°08'  
2014-Jul-18 03:23N 36°44' E 141°07'5719.6
2014-Jul-18 00:28N 35°47' E 141°01'1819.4
2014-Jul-17 23:33N 35°31' E 140°52'2220.3
2014-Jul-17 22:26N 35°12' E 140°36'1820.7
2014-Jul-17 21:33N 34°59' E 140°21'2020.1
2014-Jul-17 20:33N 34°49' E 139°60'2120.2
2014-Jul-17 19:31N 34°40' E 139°37'2422.9
2014-Jul-17 18:30N 34°31' E 139°10'40 2.2
2014-Jul-17 00:14N 34°28' E 138°22'5519.6
2014-Jul-16 21:28N 34°38' E 139°27'1820.1
2014-Jul-16 20:33N 34°45' E 139°48'1919.4
2014-Jul-16 19:33N 34°53' E 140°09'2118.5
2014-Jul-16 18:27N 35°04' E 140°30'1818.7
2014-Jul-16 17:29N 35°19' E 140°42'1920.7
2014-Jul-16 16:33N 35°35' E 140°56'2120.7
2014-Jul-16 15:33N 35°54' E 141°06'2121.2
2014-Jul-16 14:33N 36°15' E 141°10'  
2014-Jul-13 22:10N 35°36' E 140°57'1419.9
2014-Jul-13 21:29N 35°24' E 140°48'2321.2
2014-Jul-13 20:24N 35°06' E 140°30'1921.9
2014-Jul-13 19:33N 34°55' E 140°12'2222.1
2014-Jul-13 18:32N 34°44' E 139°48'76 3.3
2014-Jul-12 19:15N 34°28' E 138°18'1719.1
2014-Jul-12 18:22N 34°28' E 138°38'1718.4
2014-Jul-12 17:25N 34°27' E 138°59'1617.9
2014-Jul-12 16:30N 34°34' E 139°17'1819.2
2014-Jul-12 15:34N 34°41' E 139°38'2020.0
2014-Jul-12 14:33N 34°49' E 140°00'1919.4
2014-Jul-12 13:33N 34°59' E 140°20'1818.0
2014-Jul-12 12:33N 35°12' E 140°35'2020.0
2014-Jul-12 11:34N 35°29' E 140°49'2020.2
2014-Jul-12 10:33N 35°46' E 141°02'2020.3
2014-Jul-12 09:33N 36°07' E 141°03'  

Dump ship's entire track history